Cambridgeboro, Vermont
Current Conditions -  °F | °C
As of 3:54 PM on Tuesday 27 Jan 2015 (Local Time) from KMVL Reporting Station
Light Snow Light Snow  
Wind Chill: -8°   Ceiling: 6000
Heat Index:   Visibility: 4mi
Dew Point:   Wind: 13mph
Humidity: 70%   Direction: 340°NNW
Pressure: 29.85"   Gusts: 24mph
Location:  44.6543°N, 72.8545°W
Report Text: KMVL 272054Z AUTO 34011G21KT 4SM -SN OVC060 M13/M18 A2985 RMK AO2 SLP124 P0000 60002 T11331178 53001 TSNO
Loading
Personal Weather Stations






























Interactive Weather Map New forecast layout! Learn more

10-Day Weather Forecast

Advertisements
Track Severe Weather on mobile